Time;durP1;ratioP1;P1;durP2;ratioP2;P2;SDS_P1;SDS_P2;PMS_P1;PMS_P2;Temp;Humidity;BMP_temperature;BMP_pressure;BME280_temperature;BME280_humidity;BME280_pressure;Samples;Min_cycle;Max_cycle;Signal;HPM_P1;HPM_P2
2022/04/23 00:00:11;;;;;;;10.80;9.70;;;;;;;;;;514678;28;1335;-81
2022/04/23 00:00:27;;;;;;;11.00;9.90;;;;;;;;;;517043;28;956;-81
2022/04/23 00:00:42;;;;;;;10.40;9.40;;;;;;;;;;515683;28;1818;-81
2022/04/23 00:00:58;;;;;;;10.73;9.63;;;;;;;;;;515432;28;1399;-81
2022/04/23 00:01:13;;;;;;;11.50;10.30;;;;;;;;;;515023;28;1483;-81
2022/04/23 00:01:28;;;;;;;11.20;10.10;;;;;;;;;;514065;28;964;-81
2022/04/23 00:01:44;;;;;;;10.60;9.60;;;;;;;;;;510478;28;1581;-81
2022/04/23 00:01:59;;;;;;;10.70;9.70;;;;;;;;;;510918;28;1418;-81
2022/04/23 00:02:15;;;;;;;10.88;9.77;;;;;;;;;;513883;28;1358;-81
2022/04/23 00:02:30;;;;;;;10.63;9.53;;;;;;;;;;512248;28;1193;-81
2022/04/23 00:02:46;;;;;;;11.05;9.82;;;;;;;;;;514045;28;1181;-81
2022/04/23 00:03:02;;;;;;;11.07;9.87;;;;;;;;;;514705;28;1015;-81
2022/04/23 00:03:18;;;;;;;11.05;9.85;;;;;;;;;;516140;28;1263;-82
2022/04/23 00:03:34;;;;;;;10.90;9.80;;;;;;;;;;516548;28;908;-82
2022/04/23 00:03:49;;;;;;;11.20;10.00;;;;;;;;;;518129;28;1261;-82
2022/04/23 00:04:05;;;;;;;11.23;10.13;;;;;;;;;;516659;28;1505;-81
2022/04/23 00:04:20;;;;;;;10.90;9.75;;;;;;;;;;515726;28;1535;-81
2022/04/23 00:04:37;;;;;;;10.77;9.67;;;;;;;;;;515608;28;1428;-81
2022/04/23 00:04:52;;;;;;;10.77;9.77;;;;;;;;;;516197;28;932;-81
2022/04/23 00:05:10;;;;;;;11.13;10.02;;;;;;;;;;515552;28;841;-81
2022/04/23 00:05:25;;;;;;;11.45;10.15;;;;;;;;;;514013;28;1557;-82
2022/04/23 00:05:42;;;;;;;10.93;9.82;;;;;;;;;;514637;28;916;-82
2022/04/23 00:05:58;;;;;;;10.82;9.82;;;;;;;;;;514931;28;1090;-82
2022/04/23 00:06:13;;;;;;;10.93;9.82;;;;;;;;;;513798;28;1520;-82
2022/04/23 00:06:28;;;;;;;10.95;9.90;;;;;;;;;;514869;28;1672;-82
2022/04/23 00:06:44;;;;;;;10.73;9.73;;;;;;;;;;514106;28;1970;-82
2022/04/23 00:07:00;;;;;;;10.83;9.60;;;;;;;;;;511043;28;1473;-82
2022/04/23 00:07:15;;;;;;;11.57;9.60;;;;;;;;;;510008;29;1321;-81
2022/04/23 00:07:31;;;;;;;11.25;9.90;;;;;;;;;;509853;29;1498;-81
2022/04/23 00:07:46;;;;;;;11.27;10.07;;;;;;;;;;511931;29;1725;-81
2022/04/23 00:08:01;;;;;;;11.10;10.00;;;;;;;;;;511587;28;1461;-82
2022/04/23 00:08:17;;;;;;;10.80;9.70;;;;;;;;;;513700;28;809;-82
2022/04/23 00:08:32;;;;;;;10.80;9.77;;;;;;;;;;515140;28;877;-82
2022/04/23 00:08:48;;;;;;;10.73;9.63;;;;;;;;;;518035;28;1078;-82
2022/04/23 00:09:04;;;;;;;10.37;9.23;;;;;;;;;;518263;28;1423;-82
2022/04/23 00:09:19;;;;;;;10.50;9.40;;;;;;;;;;518025;28;1766;-81
2022/04/23 00:09:35;;;;;;;10.67;9.60;;;;;;;;;;517965;28;979;-81
2022/04/23 00:09:50;;;;;;;11.17;10.07;;;;;;;;;;517443;28;1361;-81
2022/04/23 00:10:06;;;;;;;10.88;9.80;;;;;;;;;;515690;28;1412;-82
2022/04/23 00:10:22;;;;;;;10.32;9.32;;;;;;;;;;515890;28;1420;-82
2022/04/23 00:10:38;;;;;;;11.27;9.73;;;;;;;;;;515852;28;877;-82
2022/04/23 00:10:53;;;;;;;11.47;9.87;;;;;;;;;;516085;28;1329;-82
2022/04/23 00:11:09;;;;;;;11.27;9.68;;;;;;;;;;516458;28;1351;-82
2022/04/23 00:11:26;;;;;;;11.43;9.80;;;;;;;;;;518113;28;872;-82
2022/04/23 00:11:42;;;;;;;10.98;9.88;;;;;;;;;;517459;28;979;-81
2022/04/23 00:11:58;;;;;;;11.07;9.97;;;;;;;;;;516080;28;801;-82
2022/04/23 00:12:13;;;;;;;10.77;9.68;;;;;;;;;;513801;28;1253;-81
2022/04/23 00:12:29;;;;;;;11.13;9.87;;;;;;;;;;511835;28;1226;-82
2022/04/23 00:12:46;;;;;;;11.07;9.88;;;;;;;;;;509911;29;1398;-82
2022/04/23 00:13:03;;;;;;;10.70;9.60;;;;;;;;;;512686;28;1414;-81
2022/04/23 00:13:19;;;;;;;10.63;9.63;;;;;;;;;;513837;28;845;-81
2022/04/23 00:13:34;;;;;;;10.90;9.80;;;;;;;;;;514333;28;1190;-81
2022/04/23 00:13:49;;;;;;;10.88;9.68;;;;;;;;;;513843;28;1167;-81
2022/04/23 00:14:05;;;;;;;10.50;9.40;;;;;;;;;;515603;28;1044;-81
2022/04/23 00:14:20;;;;;;;10.53;9.50;;;;;;;;;;517982;28;1266;-82
2022/04/23 00:14:36;;;;;;;10.38;9.48;;;;;;;;;;517166;28;1683;-81
2022/04/23 00:14:53;;;;;;;10.38;9.48;;;;;;;;;;513892;28;1377;-81
2022/04/23 00:15:09;;;;;;;11.30;10.10;;;;;;;;;;513926;28;847;-81
2022/04/23 00:15:25;;;;;;;11.68;10.10;;;;;;;;;;514042;28;844;-82
2022/04/23 00:15:40;;;;;;;11.32;9.55;;;;;;;;;;512551;28;1470;-82
2022/04/23 00:15:55;;;;;;;11.00;9.50;;;;;;;;;;514180;28;1532;-82
2022/04/23 00:16:14;;;;;;;10.60;9.50;;;;;;;;;;512208;29;1633;-82
2022/04/23 00:16:30;;;;;;;10.60;9.55;;;;;;;;;;512782;28;876;-82
2022/04/23 00:16:45;;;;;;;10.60;9.60;;;;;;;;;;514901;28;1555;-81
2022/04/23 00:17:01;;;;;;;10.70;9.60;;;;;;;;;;516422;28;804;-81
2022/04/23 00:17:18;;;;;;;10.82;9.73;;;;;;;;;;516317;28;1196;-81
2022/04/23 00:17:33;;;;;;;10.77;9.70;;;;;;;;;;516004;28;1228;-82
2022/04/23 00:17:48;;;;;;;11.25;9.85;;;;;;;;;;513950;28;920;-82
2022/04/23 00:18:08;;;;;;;11.13;10.03;;;;;;;;;;515975;28;1103;-82
2022/04/23 00:18:24;;;;;;;11.15;10.05;;;;;;;;;;516099;28;1479;-82
2022/04/23 00:18:40;;;;;;;11.35;10.15;;;;;;;;;;513969;28;1324;-82
2022/04/23 00:18:56;;;;;;;10.93;9.82;;;;;;;;;;515940;28;1172;-81
2022/04/23 00:19:11;;;;;;;10.65;9.65;;;;;;;;;;517392;28;1041;-81
2022/04/23 00:19:27;;;;;;;10.53;9.63;;;;;;;;;;516426;28;1317;-81
2022/04/23 00:19:44;;;;;;;10.40;9.45;;;;;;;;;;513609;28;1579;-81
2022/04/23 00:20:00;;;;;;;10.85;9.77;;;;;;;;;;514855;28;892;-81
2022/04/23 00:20:16;;;;;;;11.00;10.00;;;;;;;;;;513421;28;1516;-81
2022/04/23 00:20:33;;;;;;;10.55;9.55;;;;;;;;;;514324;28;1385;-81
2022/04/23 00:20:48;;;;;;;10.73;9.63;;;;;;;;;;514748;28;1258;-81
2022/04/23 00:21:04;;;;;;;10.60;9.50;;;;;;;;;;513679;28;2020;-82
2022/04/23 00:21:19;;;;;;;10.73;9.73;;;;;;;;;;515694;28;1660;-82
2022/04/23 00:21:35;;;;;;;10.82;9.68;;;;;;;;;;516731;28;1341;-82
2022/04/23 00:21:50;;;;;;;11.07;9.57;;;;;;;;;;518118;28;872;-82
2022/04/23 00:22:06;;;;;;;10.55;9.45;;;;;;;;;;517820;28;1415;-82
2022/04/23 00:22:21;;;;;;;10.90;9.80;;;;;;;;;;517916;28;1481;-82
2022/04/23 00:22:37;;;;;;;11.32;10.23;;;;;;;;;;518185;28;1416;-82
2022/04/23 00:22:53;;;;;;;11.32;10.15;;;;;;;;;;520150;28;844;-82
2022/04/23 00:23:08;;;;;;;11.10;9.83;;;;;;;;;;519842;28;1423;-82
2022/04/23 00:23:25;;;;;;;10.93;9.77;;;;;;;;;;518097;28;1231;-82
2022/04/23 00:23:40;;;;;;;11.00;9.90;;;;;;;;;;515490;28;1602;-82
2022/04/23 00:23:56;;;;;;;10.67;9.67;;;;;;;;;;515981;28;820;-82
2022/04/23 00:24:11;;;;;;;11.13;9.90;;;;;;;;;;515170;28;1425;-82
2022/04/23 00:24:27;;;;;;;11.63;9.90;;;;;;;;;;515649;28;1227;-81
2022/04/23 00:24:43;;;;;;;10.63;9.55;;;;;;;;;;515484;28;1384;-82
2022/04/23 00:24:58;;;;;;;11.07;9.98;;;;;;;;;;515381;28;1278;-82
2022/04/23 00:25:13;;;;;;;11.60;10.47;;;;;;;;;;515777;28;1396;-81
2022/04/23 00:25:29;;;;;;;11.80;10.60;;;;;;;;;;515562;28;1522;-81
2022/04/23 00:25:46;;;;;;;12.25;10.95;;;;;;;;;;516038;28;1530;-81
2022/04/23 00:26:02;;;;;;;12.48;10.95;;;;;;;;;;517153;28;903;-81
2022/04/23 00:26:17;;;;;;;11.85;10.57;;;;;;;;;;518210;28;1232;-81
2022/04/23 00:26:33;;;;;;;11.50;10.30;;;;;;;;;;518958;28;1408;-82
2022/04/23 00:26:48;;;;;;;11.55;10.35;;;;;;;;;;518134;28;1918;-82
2022/04/23 00:27:04;;;;;;;11.30;10.20;;;;;;;;;;517946;28;1278;-82
2022/04/23 00:27:19;;;;;;;11.07;10.00;;;;;;;;;;520272;28;849;-82
2022/04/23 00:27:34;;;;;;;11.30;10.07;;;;;;;;;;518156;28;1545;-82
2022/04/23 00:27:50;;;;;;;11.43;10.23;;;;;;;;;;518206;28;824;-81
2022/04/23 00:28:06;;;;;;;11.23;10.13;;;;;;;;;;517967;28;847;-82
2022/04/23 00:28:21;;;;;;;11.20;10.07;;;;;;;;;;517589;28;1389;-82
2022/04/23 00:28:37;;;;;;;11.20;10.10;;;;;;;;;;514968;28;1353;-81
2022/04/23 00:28:52;;;;;;;11.52;10.38;;;;;;;;;;511922;29;1170;-82
2022/04/23 00:29:08;;;;;;;11.50;10.30;;;;;;;;;;512251;28;793;-82
2022/04/23 00:29:23;;;;;;;11.52;10.32;;;;;;;;;;514417;28;1574;-82
2022/04/23 00:29:39;;;;;;;11.63;10.50;;;;;;;;;;515331;28;1485;-82
2022/04/23 00:29:55;;;;;;;11.85;10.65;;;;;;;;;;516248;28;883;-81
2022/04/23 00:30:11;;;;;;;12.85;10.45;;;;;;;;;;513658;28;1298;-82
2022/04/23 00:30:26;;;;;;;13.35;10.65;;;;;;;;;;513898;28;848;-82
2022/04/23 00:30:41;;;;;;;12.00;10.77;;;;;;;;;;515874;28;1461;-81
2022/04/23 00:30:57;;;;;;;12.03;10.83;;;;;;;;;;517560;28;1494;-81
2022/04/23 00:31:13;;;;;;;11.82;10.63;;;;;;;;;;517416;28;1923;-81
2022/04/23 00:31:29;;;;;;;11.10;10.00;;;;;;;;;;517740;28;1439;-81
2022/04/23 00:31:45;;;;;;;11.17;10.07;;;;;;;;;;517726;28;1414;-81
2022/04/23 00:32:00;;;;;;;11.23;10.15;;;;;;;;;;517301;28;1357;-81
2022/04/23 00:32:17;;;;;;;11.47;10.37;;;;;;;;;;516160;28;1392;-81
2022/04/23 00:32:32;;;;;;;11.68;10.45;;;;;;;;;;514727;28;1502;-81
2022/04/23 00:32:48;;;;;;;11.67;10.47;;;;;;;;;;517866;28;1464;-81
2022/04/23 00:33:03;;;;;;;11.75;10.55;;;;;;;;;;515505;28;1400;-82
2022/04/23 00:33:19;;;;;;;11.80;10.60;;;;;;;;;;515852;28;1337;-82
2022/04/23 00:33:37;;;;;;;11.73;10.52;;;;;;;;;;516739;28;1344;-81
2022/04/23 00:33:53;;;;;;;11.02;9.93;;;;;;;;;;517758;28;1635;-82
2022/04/23 00:34:09;;;;;;;11.40;10.20;;;;;;;;;;517915;28;1546;-81
2022/04/23 00:34:25;;;;;;;11.95;10.60;;;;;;;;;;515855;28;1547;-82
2022/04/23 00:34:41;;;;;;;11.60;10.40;;;;;;;;;;515784;28;1311;-82
2022/04/23 00:34:56;;;;;;;11.40;10.10;;;;;;;;;;516645;28;1716;-82
2022/04/23 00:35:16;;;;;;;11.63;10.23;;;;;;;;;;517881;28;1668;-82
2022/04/23 00:35:31;;;;;;;11.77;10.50;;;;;;;;;;517818;28;1051;-82
2022/04/23 00:35:49;;;;;;;11.83;10.60;;;;;;;;;;515912;28;1252;-82
2022/04/23 00:36:10;;;;;;;11.55;10.45;;;;;;;;;;515923;28;880;-81
2022/04/23 00:36:26;;;;;;;11.98;10.77;;;;;;;;;;517806;28;947;-82
2022/04/23 00:36:42;;;;;;;12.13;10.82;;;;;;;;;;513863;28;1264;-82
2022/04/23 00:36:57;;;;;;;11.80;10.63;;;;;;;;;;516017;28;872;-82
2022/04/23 00:37:14;;;;;;;11.57;10.47;;;;;;;;;;516072;28;911;-82
2022/04/23 00:37:31;;;;;;;11.68;10.57;;;;;;;;;;515943;28;1395;-82
2022/04/23 00:37:47;;;;;;;11.70;10.50;;;;;;;;;;514262;28;1125;-81
2022/04/23 00:38:04;;;;;;;11.73;10.53;;;;;;;;;;514147;28;798;-81
2022/04/23 00:38:19;;;;;;;11.75;10.55;;;;;;;;;;513704;28;1453;-81
2022/04/23 00:38:36;;;;;;;11.63;10.53;;;;;;;;;;514256;28;1520;-81
2022/04/23 00:38:52;;;;;;;11.73;10.63;;;;;;;;;;515549;28;1463;-81
2022/04/23 00:39:08;;;;;;;11.70;10.60;;;;;;;;;;513583;28;1543;-81
2022/04/23 00:39:23;;;;;;;11.97;10.77;;;;;;;;;;514919;28;1476;-81
2022/04/23 00:39:39;;;;;;;11.90;10.73;;;;;;;;;;512182;28;1142;-81
2022/04/23 00:39:54;;;;;;;11.63;10.52;;;;;;;;;;513739;28;1355;-82
2022/04/23 00:40:16;;;;;;;12.00;10.83;;;;;;;;;;513904;28;1224;-82
2022/04/23 00:40:32;;;;;;;12.18;10.85;;;;;;;;;;512334;28;1497;-81
2022/04/23 00:40:47;;;;;;;11.88;10.50;;;;;;;;;;511799;29;1197;-81
2022/04/23 00:41:02;;;;;;;11.83;10.63;;;;;;;;;;515044;28;1289;-82
2022/04/23 00:41:57;;;;;;;11.73;10.52;;;;;;;;;;513898;28;686;-82
2022/04/23 00:42:12;;;;;;;12.52;10.90;;;;;;;;;;516058;28;1405;-82
2022/04/23 00:42:28;;;;;;;12.10;10.80;;;;;;;;;;516867;28;1592;-81
2022/04/23 00:42:52;;;;;;;12.20;11.00;;;;;;;;;;517855;28;1018;-81
2022/04/23 00:43:12;;;;;;;12.07;10.88;;;;;;;;;;519614;28;1322;-81
2022/04/23 00:43:29;;;;;;;12.25;11.05;;;;;;;;;;517978;28;887;-81
2022/04/23 00:43:48;;;;;;;12.52;11.23;;;;;;;;;;519329;28;1707;-82
2022/04/23 00:44:03;;;;;;;12.13;10.93;;;;;;;;;;518336;28;857;-81
2022/04/23 00:44:19;;;;;;;12.15;10.82;;;;;;;;;;516646;28;1427;-81
2022/04/23 00:44:38;;;;;;;12.57;11.27;;;;;;;;;;516171;28;1466;-81
2022/04/23 00:44:53;;;;;;;12.88;11.57;;;;;;;;;;515866;28;765;-82
2022/04/23 00:45:08;;;;;;;12.87;11.47;;;;;;;;;;517201;28;1412;-81
2022/04/23 00:45:28;;;;;;;12.90;11.43;;;;;;;;;;516252;28;999;-81
2022/04/23 00:45:43;;;;;;;12.65;11.35;;;;;;;;;;513879;28;1302;-81
2022/04/23 00:45:58;;;;;;;12.33;11.13;;;;;;;;;;513894;28;1573;-81
2022/04/23 00:46:14;;;;;;;12.55;11.25;;;;;;;;;;515282;28;1011;-82
2022/04/23 00:46:29;;;;;;;12.33;11.13;;;;;;;;;;517398;28;786;-82
2022/04/23 00:46:45;;;;;;;12.25;11.05;;;;;;;;;;517929;28;1976;-81
2022/04/23 00:47:00;;;;;;;12.77;11.47;;;;;;;;;;518022;28;884;-81
2022/04/23 00:47:16;;;;;;;12.27;11.07;;;;;;;;;;518655;28;1570;-81
2022/04/23 00:47:31;;;;;;;12.13;10.97;;;;;;;;;;516766;28;1594;-81
2022/04/23 00:47:47;;;;;;;12.35;11.10;;;;;;;;;;518090;28;1571;-81
2022/04/23 00:48:02;;;;;;;12.27;11.07;;;;;;;;;;514864;28;1268;-81
2022/04/23 00:48:18;;;;;;;12.10;11.00;;;;;;;;;;514847;28;1441;-81
2022/04/23 00:48:33;;;;;;;12.07;10.90;;;;;;;;;;515596;28;892;-81
2022/04/23 00:48:48;;;;;;;12.57;11.07;;;;;;;;;;514002;28;1181;-81
2022/04/23 00:49:05;;;;;;;12.17;10.83;;;;;;;;;;516048;28;1117;-81
2022/04/23 00:49:21;;;;;;;11.60;10.45;;;;;;;;;;518091;28;1516;-81
2022/04/23 00:49:37;;;;;;;11.53;10.33;;;;;;;;;;517540;28;863;-81
2022/04/23 00:49:52;;;;;;;11.52;10.35;;;;;;;;;;516571;28;1390;-81
2022/04/23 00:50:09;;;;;;;11.77;10.43;;;;;;;;;;518597;28;915;-81
2022/04/23 00:50:24;;;;;;;12.05;10.40;;;;;;;;;;518207;28;1173;-81
2022/04/23 00:50:39;;;;;;;12.05;10.75;;;;;;;;;;515788;28;1354;-82
2022/04/23 00:50:57;;;;;;;12.63;11.03;;;;;;;;;;514457;28;1323;-82
2022/04/23 00:51:13;;;;;;;12.82;11.07;;;;;;;;;;512110;29;1395;-82
2022/04/23 00:51:30;;;;;;;12.98;11.35;;;;;;;;;;512256;29;873;-82
2022/04/23 00:51:47;;;;;;;13.27;11.32;;;;;;;;;;513112;28;1030;-82
2022/04/23 00:52:03;;;;;;;12.20;11.00;;;;;;;;;;514072;28;857;-82
2022/04/23 00:52:19;;;;;;;12.20;10.87;;;;;;;;;;515203;28;832;-81
2022/04/23 00:52:35;;;;;;;12.07;10.77;;;;;;;;;;517106;28;1550;-81
2022/04/23 00:52:54;;;;;;;11.88;10.73;;;;;;;;;;518448;28;845;-82
2022/04/23 00:53:11;;;;;;;12.40;11.20;;;;;;;;;;519587;28;856;-82
2022/04/23 00:53:27;;;;;;;12.73;11.40;;;;;;;;;;518485;28;1354;-82
2022/04/23 00:53:43;;;;;;;12.30;11.10;;;;;;;;;;516236;28;1209;-81
2022/04/23 00:54:01;;;;;;;12.30;11.10;;;;;;;;;;516093;28;1189;-81
2022/04/23 00:54:18;;;;;;;12.43;11.25;;;;;;;;;;515879;28;907;-82
2022/04/23 00:54:34;;;;;;;12.40;11.18;;;;;;;;;;514261;28;1187;-82
2022/04/23 00:54:50;;;;;;;12.63;11.32;;;;;;;;;;513070;28;892;-82
2022/04/23 00:55:07;;;;;;;12.60;11.30;;;;;;;;;;513978;28;1144;-81
2022/04/23 00:55:23;;;;;;;12.40;11.10;;;;;;;;;;516032;28;845;-81
2022/04/23 00:55:38;;;;;;;12.18;10.98;;;;;;;;;;519063;28;1620;-81
2022/04/23 00:55:54;;;;;;;12.00;10.90;;;;;;;;;;518573;28;1485;-81
2022/04/23 00:56:10;;;;;;;11.95;10.75;;;;;;;;;;517586;28;1811;-81
2022/04/23 00:56:25;;;;;;;12.23;11.00;;;;;;;;;;517611;28;1539;-81
2022/04/23 00:56:41;;;;;;;12.60;11.33;;;;;;;;;;517005;28;1392;-81
2022/04/23 00:56:57;;;;;;;12.43;11.13;;;;;;;;;;516144;28;1145;-81
2022/04/23 00:57:12;;;;;;;12.48;11.13;;;;;;;;;;516162;28;913;-81
2022/04/23 00:57:28;;;;;;;12.40;11.10;;;;;;;;;;516279;28;1015;-82
2022/04/23 00:57:44;;;;;;;12.25;10.93;;;;;;;;;;516765;28;1314;-82
2022/04/23 00:57:59;;;;;;;13.17;11.10;;;;;;;;;;516348;28;1402;-81
2022/04/23 00:58:16;;;;;;;13.65;11.25;;;;;;;;;;515875;28;1671;-82
2022/04/23 00:58:31;;;;;;;12.65;11.35;;;;;;;;;;514172;28;1144;-82
2022/04/23 00:58:47;;;;;;;12.90;11.60;;;;;;;;;;516872;28;1043;-82
2022/04/23 00:59:10;;;;;;;13.00;11.70;;;;;;;;;;516086;28;1310;-82
2022/04/23 00:59:28;;;;;;;13.27;11.88;;;;;;;;;;514562;28;927;-82
2022/04/23 00:59:44;;;;;;;12.70;11.40;;;;;;;;;;510277;29;1261;-82
2022/04/23 01:00:06;;;;;;;12.85;11.55;;;;;;;;;;511826;29;830;-82
2022/04/23 01:00:22;;;;;;;12.85;11.55;;;;;;;;;;512677;28;1107;-81
2022/04/23 01:00:40;;;;;;;12.18;10.98;;;;;;;;;;514336;28;1161;-82
2022/04/23 01:00:56;;;;;;;12.40;11.10;;;;;;;;;;514956;28;1345;-82
2022/04/23 01:01:11;;;;;;;13.38;11.50;;;;;;;;;;517580;28;1715;-82
2022/04/23 01:01:27;;;;;;;13.10;11.63;;;;;;;;;;518338;28;844;-82
2022/04/23 01:01:43;;;;;;;13.00;11.60;;;;;;;;;;519748;28;1732;-81
2022/04/23 01:02:00;;;;;;;12.73;11.43;;;;;;;;;;518091;28;1470;-81
2022/04/23 01:02:17;;;;;;;12.90;11.60;;;;;;;;;;515921;28;1257;-81
2022/04/23 01:02:32;;;;;;;12.98;11.32;;;;;;;;;;514481;28;1462;-81
2022/04/23 01:02:48;;;;;;;12.38;11.13;;;;;;;;;;514501;28;1495;-81
2022/04/23 01:03:03;;;;;;;12.70;11.40;;;;;;;;;;514735;28;1619;-81
2022/04/23 01:03:22;;;;;;;12.97;11.33;;;;;;;;;;516329;28;990;-81
2022/04/23 01:03:39;;;;;;;12.77;11.32;;;;;;;;;;515857;28;1590;-81
2022/04/23 01:03:54;;;;;;;13.10;11.73;;;;;;;;;;517371;28;876;-82
2022/04/23 01:04:12;;;;;;;13.03;11.63;;;;;;;;;;517785;28;1554;-82
2022/04/23 01:04:30;;;;;;;12.48;11.18;;;;;;;;;;519312;28;1115;-81
2022/04/23 01:04:46;;;;;;;12.35;11.15;;;;;;;;;;520191;28;892;-81
2022/04/23 01:05:08;;;;;;;12.25;11.05;;;;;;;;;;520395;28;943;-81
2022/04/23 01:05:23;;;;;;;12.75;11.20;;;;;;;;;;518407;28;864;-82
2022/04/23 01:05:46;;;;;;;12.40;11.10;;;;;;;;;;519231;28;1510;-81
2022/04/23 01:06:01;;;;;;;12.40;11.20;;;;;;;;;;520498;28;1166;-81
2022/04/23 01:06:18;;;;;;;12.53;11.30;;;;;;;;;;520565;28;1637;-81
2022/04/23 01:06:34;;;;;;;13.18;11.88;;;;;;;;;;518532;28;1449;-81
2022/04/23 01:06:49;;;;;;;13.25;11.93;;;;;;;;;;518162;28;1914;-81
2022/04/23 01:07:06;;;;;;;13.53;11.33;;;;;;;;;;514972;28;1441;-81
2022/04/23 01:07:22;;;;;;;13.90;11.23;;;;;;;;;;516322;28;872;-82
2022/04/23 01:07:41;;;;;;;12.85;11.55;;;;;;;;;;516209;28;1285;-82
2022/04/23 01:08:02;;;;;;;12.40;11.20;;;;;;;;;;516345;28;1031;-82
2022/04/23 01:08:19;;;;;;;12.18;10.98;;;;;;;;;;516122;28;1464;-82
2022/04/23 01:08:34;;;;;;;12.63;11.30;;;;;;;;;;516054;28;1333;-82
2022/04/23 01:08:51;;;;;;;13.80;11.60;;;;;;;;;;514009;28;1154;-82
2022/04/23 01:09:08;;;;;;;14.07;11.90;;;;;;;;;;513970;28;1516;-82
2022/04/23 01:09:23;;;;;;;13.02;11.73;;;;;;;;;;511994;29;1376;-82
2022/04/23 01:09:39;;;;;;;12.60;11.30;;;;;;;;;;512040;28;1602;-82
2022/04/23 01:09:55;;;;;;;12.73;11.38;;;;;;;;;;513964;28;924;-82
2022/04/23 01:10:11;;;;;;;12.82;11.52;;;;;;;;;;512306;28;1532;-82
2022/04/23 01:10:27;;;;;;;12.82;11.52;;;;;;;;;;514321;28;868;-82
2022/04/23 01:10:48;;;;;;;13.00;11.70;;;;;;;;;;514713;28;1633;-82
2022/04/23 01:11:04;;;;;;;13.32;12.00;;;;;;;;;;515731;28;1388;-81
2022/04/23 01:11:20;;;;;;;13.40;12.00;;;;;;;;;;517506;28;1366;-82
2022/04/23 01:11:36;;;;;;;13.50;12.15;;;;;;;;;;516381;28;1398;-82
2022/04/23 01:11:53;;;;;;;13.32;11.98;;;;;;;;;;515533;28;1588;-82
2022/04/23 01:12:09;;;;;;;12.85;11.45;;;;;;;;;;516160;28;1007;-82
2022/04/23 01:12:24;;;;;;;13.23;11.57;;;;;;;;;;514236;28;1696;-82
2022/04/23 01:12:39;;;;;;;13.27;11.87;;;;;;;;;;513350;28;1584;-81
2022/04/23 01:12:55;;;;;;;13.10;11.90;;;;;;;;;;514628;28;1425;-81
2022/04/23 01:13:14;;;;;;;12.95;11.73;;;;;;;;;;513468;28;2158;-82
2022/04/23 01:13:30;;;;;;;13.20;11.80;;;;;;;;;;513459;28;865;-82
2022/04/23 01:13:45;;;;;;;13.60;12.20;;;;;;;;;;515308;28;1208;-82
2022/04/23 01:14:01;;;;;;;13.73;12.33;;;;;;;;;;513814;28;1638;-82
2022/04/23 01:14:18;;;;;;;13.73;12.32;;;;;;;;;;513985;28;1444;-82
2022/04/23 01:14:33;;;;;;;13.23;11.93;;;;;;;;;;512035;29;905;-82
2022/04/23 01:14:57;;;;;;;13.10;11.80;;;;;;;;;;513025;28;1625;-82
2022/04/23 01:15:14;;;;;;;13.55;12.02;;;;;;;;;;513824;28;908;-81
2022/04/23 01:15:29;;;;;;;14.38;12.43;;;;;;;;;;515770;28;1282;-82
2022/04/23 01:15:57;;;;;;;13.60;12.18;;;;;;;;;;515674;28;1448;-81
2022/04/23 01:16:12;;;;;;;13.43;12.13;;;;;;;;;;518086;28;852;-81
2022/04/23 01:16:28;;;;;;;13.70;12.33;;;;;;;;;;516142;28;1168;-82
2022/04/23 01:16:43;;;;;;;14.75;12.38;;;;;;;;;;517095;28;1526;-82
2022/04/23 01:16:59;;;;;;;14.18;12.30;;;;;;;;;;518170;28;999;-82
2022/04/23 01:17:14;;;;;;;13.37;12.07;;;;;;;;;;518129;28;851;-82
2022/04/23 01:17:30;;;;;;;13.80;12.40;;;;;;;;;;517909;28;905;-82
2022/04/23 01:17:47;;;;;;;14.13;12.73;;;;;;;;;;515770;28;1185;-81
2022/04/23 01:18:03;;;;;;;13.68;12.38;;;;;;;;;;515722;28;1282;-82
2022/04/23 01:18:18;;;;;;;13.45;12.15;;;;;;;;;;515716;28;1253;-82
2022/04/23 01:18:36;;;;;;;13.60;12.30;;;;;;;;;;516039;28;928;-82
2022/04/23 01:18:52;;;;;;;13.73;12.35;;;;;;;;;;516133;28;1268;-82
2022/04/23 01:19:07;;;;;;;14.10;12.70;;;;;;;;;;516505;28;876;-82
2022/04/23 01:19:22;;;;;;;14.00;12.60;;;;;;;;;;516134;28;1530;-82
2022/04/23 01:19:38;;;;;;;13.63;12.23;;;;;;;;;;516149;28;964;-82
2022/04/23 01:19:53;;;;;;;13.63;12.23;;;;;;;;;;515771;28;1242;-82
2022/04/23 01:20:13;;;;;;;13.17;11.80;;;;;;;;;;516752;28;1590;-82
2022/04/23 01:20:29;;;;;;;13.52;11.75;;;;;;;;;;516150;28;865;-82
2022/04/23 01:20:44;;;;;;;13.35;11.95;;;;;;;;;;515361;28;845;-82
2022/04/23 01:21:01;;;;;;;13.20;11.80;;;;;;;;;;512005;29;1347;-82
2022/04/23 01:21:17;;;;;;;13.10;11.80;;;;;;;;;;514363;28;1481;-82
2022/04/23 01:21:33;;;;;;;13.57;12.20;;;;;;;;;;516409;28;617;-82
2022/04/23 01:21:49;;;;;;;14.27;12.45;;;;;;;;;;517174;28;1543;-82
2022/04/23 01:22:04;;;;;;;14.20;12.70;;;;;;;;;;518191;28;1081;-82
2022/04/23 01:22:23;;;;;;;14.32;12.88;;;;;;;;;;516203;28;1247;-82
2022/04/23 01:22:40;;;;;;;13.65;12.35;;;;;;;;;;516781;28;1332;-82
2022/04/23 01:22:56;;;;;;;13.48;12.18;;;;;;;;;;517292;28;1587;-82
2022/04/23 01:23:11;;;;;;;14.53;13.07;;;;;;;;;;515748;28;1516;-81
2022/04/23 01:23:27;;;;;;;14.60;13.10;;;;;;;;;;518090;28;983;-81
2022/04/23 01:23:46;;;;;;;14.55;13.05;;;;;;;;;;517620;28;1281;-82
2022/04/23 01:24:02;;;;;;;14.50;13.00;;;;;;;;;;516542;28;938;-82
2022/04/23 01:24:20;;;;;;;14.23;12.80;;;;;;;;;;516227;28;1583;-82
2022/04/23 01:24:35;;;;;;;14.10;12.70;;;;;;;;;;516601;28;892;-82
2022/04/23 01:24:51;;;;;;;13.73;12.40;;;;;;;;;;516085;28;809;-82
2022/04/23 01:25:12;;;;;;;13.70;12.30;;;;;;;;;;516215;28;1260;-82
2022/04/23 01:25:28;;;;;;;13.32;12.02;;;;;;;;;;515900;28;1257;-82
2022/04/23 01:25:43;;;;;;;13.75;12.23;;;;;;;;;;516092;28;1150;-82
2022/04/23 01:25:59;;;;;;;14.25;12.73;;;;;;;;;;516040;28;1535;-83
2022/04/23 01:26:31;;;;;;;14.23;12.73;;;;;;;;;;515514;28;1404;-85
2022/04/23 01:26:46;;;;;;;13.77;12.38;;;;;;;;;;513556;28;1919;-85
2022/04/23 01:27:02;;;;;;;13.23;11.93;;;;;;;;;;510921;28;1310;-85
2022/04/23 01:27:18;;;;;;;13.27;11.97;;;;;;;;;;512694;28;1193;-85
2022/04/23 01:27:34;;;;;;;14.20;12.70;;;;;;;;;;512877;28;973;-86
2022/04/23 01:27:50;;;;;;;14.27;12.85;;;;;;;;;;513742;28;1239;-85
2022/04/23 01:28:08;;;;;;;13.93;12.52;;;;;;;;;;512637;28;1332;-85
2022/04/23 01:28:25;;;;;;;14.32;12.70;;;;;;;;;;514033;28;1014;-85
2022/04/23 01:28:40;;;;;;;15.15;13.07;;;;;;;;;;513947;28;1550;-86
2022/04/23 01:28:57;;;;;;;14.55;13.05;;;;;;;;;;514702;28;924;-85
2022/04/23 01:29:13;;;;;;;14.32;12.93;;;;;;;;;;512599;28;1357;-84
2022/04/23 01:29:28;;;;;;;14.50;13.10;;;;;;;;;;512176;28;1418;-86
2022/04/23 01:29:43;;;;;;;15.03;13.53;;;;;;;;;;513824;28;1629;-85
2022/04/23 01:29:59;;;;;;;15.57;13.98;;;;;;;;;;512886;28;1383;-85
2022/04/23 01:30:15;;;;;;;15.33;13.77;;;;;;;;;;514055;28;1170;-85
2022/04/23 01:30:30;;;;;;;14.95;13.45;;;;;;;;;;512724;28;1528;-85
2022/04/23 01:30:48;;;;;;;15.10;13.60;;;;;;;;;;512035;29;806;-86
2022/04/23 01:31:05;;;;;;;15.48;13.93;;;;;;;;;;512534;28;1568;-85
2022/04/23 01:31:21;;;;;;;15.40;13.90;;;;;;;;;;513153;28;1111;-85
2022/04/23 01:31:36;;;;;;;15.23;13.63;;;;;;;;;;510899;29;1445;-85
2022/04/23 01:31:52;;;;;;;15.47;13.87;;;;;;;;;;512889;28;1297;-85
2022/04/23 01:32:07;;;;;;;15.48;13.88;;;;;;;;;;511811;28;1464;-85
2022/04/23 01:32:23;;;;;;;15.17;13.33;;;;;;;;;;510849;29;1078;-85
2022/04/23 01:32:39;;;;;;;15.05;13.48;;;;;;;;;;511904;29;794;-85
2022/04/23 01:32:55;;;;;;;15.38;13.77;;;;;;;;;;510484;29;1237;-85
2022/04/23 01:33:10;;;;;;;15.00;13.40;;;;;;;;;;512002;28;1335;-85
2022/04/23 01:33:25;;;;;;;14.70;13.20;;;;;;;;;;513804;28;1366;-85
2022/04/23 01:33:41;;;;;;;14.43;13.00;;;;;;;;;;513943;28;1026;-85
2022/04/23 01:33:56;;;;;;;14.60;13.00;;;;;;;;;;512185;28;1271;-85
2022/04/23 01:34:12;;;;;;;15.05;13.45;;;;;;;;;;513926;28;1020;-85
2022/04/23 01:34:27;;;;;;;15.13;13.63;;;;;;;;;;514310;28;1166;-85
2022/04/23 01:34:42;;;;;;;15.18;13.68;;;;;;;;;;516100;28;1131;-85
2022/04/23 01:34:58;;;;;;;14.63;13.23;;;;;;;;;;518025;28;992;-85
2022/04/23 01:35:14;;;;;;;14.82;13.35;;;;;;;;;;517440;28;1359;-85
2022/04/23 01:35:31;;;;;;;14.97;13.37;;;;;;;;;;516027;28;987;-85
2022/04/23 01:35:46;;;;;;;14.77;13.20;;;;;;;;;;514591;28;1364;-85
2022/04/23 01:36:03;;;;;;;14.87;13.37;;;;;;;;;;513944;28;1209;-85
2022/04/23 01:36:19;;;;;;;14.77;13.27;;;;;;;;;;513804;28;1276;-85
2022/04/23 01:36:35;;;;;;;14.75;13.25;;;;;;;;;;513879;28;821;-85
2022/04/23 01:36:50;;;;;;;14.47;13.07;;;;;;;;;;513945;28;841;-85
2022/04/23 01:37:05;;;;;;;14.60;13.10;;;;;;;;;;513896;28;1176;-85
2022/04/23 01:37:21;;;;;;;14.37;12.97;;;;;;;;;;513933;28;1133;-85
2022/04/23 01:37:36;;;;;;;14.60;13.20;;;;;;;;;;514034;28;1112;-85
2022/04/23 01:37:51;;;;;;;15.38;13.77;;;;;;;;;;514423;28;1273;-85
2022/04/23 01:38:07;;;;;;;15.83;13.57;;;;;;;;;;515113;28;1469;-85
2022/04/23 01:38:22;;;;;;;15.27;13.55;;;;;;;;;;514008;28;1255;-85
2022/04/23 01:38:38;;;;;;;15.43;13.87;;;;;;;;;;514882;28;1327;-86
2022/04/23 01:38:53;;;;;;;15.37;13.87;;;;;;;;;;515919;28;1727;-85